sensor_id;sensor_type;location;lat;lon;timestamp;temperature;humidity
53422;DHT22;39319;52.944;5.928;2023-02-01T00:01:55;8.80;96.30
53422;DHT22;39319;52.944;5.928;2023-02-01T00:04:22;8.70;96.40
53422;DHT22;39319;52.944;5.928;2023-02-01T00:06:48;8.70;96.10
53422;DHT22;39319;52.944;5.928;2023-02-01T00:09:13;8.80;96.10
53422;DHT22;39319;52.944;5.928;2023-02-01T00:11:40;8.80;96.40
53422;DHT22;39319;52.944;5.928;2023-02-01T00:14:06;8.80;96.20
53422;DHT22;39319;52.944;5.928;2023-02-01T00:16:32;8.70;96.20
53422;DHT22;39319;52.944;5.928;2023-02-01T00:19:18;8.70;96.30
53422;DHT22;39319;52.944;5.928;2023-02-01T00:21:43;8.80;96.10
53422;DHT22;39319;52.944;5.928;2023-02-01T00:24:11;8.80;96.20
53422;DHT22;39319;52.944;5.928;2023-02-01T00:26:39;8.70;96.10
53422;DHT22;39319;52.944;5.928;2023-02-01T00:29:14;8.80;96.20
53422;DHT22;39319;52.944;5.928;2023-02-01T00:31:40;8.80;96.10
53422;DHT22;39319;52.944;5.928;2023-02-01T00:34:06;8.80;96.10
53422;DHT22;39319;52.944;5.928;2023-02-01T00:36:32;8.70;96.10
53422;DHT22;39319;52.944;5.928;2023-02-01T00:38:58;8.70;96.10
53422;DHT22;39319;52.944;5.928;2023-02-01T00:41:27;8.70;96.20
53422;DHT22;39319;52.944;5.928;2023-02-01T00:43:53;8.80;96.30
53422;DHT22;39319;52.944;5.928;2023-02-01T00:46:19;8.60;96.50
53422;DHT22;39319;52.944;5.928;2023-02-01T00:48:45;8.80;96.50
53422;DHT22;39319;52.944;5.928;2023-02-01T00:51:13;8.60;96.50
53422;DHT22;39319;52.944;5.928;2023-02-01T00:53:40;8.80;96.50
53422;DHT22;39319;52.944;5.928;2023-02-01T00:56:06;8.60;96.50
53422;DHT22;39319;52.944;5.928;2023-02-01T00:58:32;8.70;96.60
53422;DHT22;39319;52.944;5.928;2023-02-01T01:01:07;8.70;96.60
53422;DHT22;39319;52.944;5.928;2023-02-01T01:03:35;8.70;96.80
53422;DHT22;39319;52.944;5.928;2023-02-01T01:06:03;8.80;96.60
53422;DHT22;39319;52.944;5.928;2023-02-01T01:08:29;8.60;96.60
53422;DHT22;39319;52.944;5.928;2023-02-01T01:10:55;8.70;96.60
53422;DHT22;39319;52.944;5.928;2023-02-01T01:13:22;8.90;96.50
53422;DHT22;39319;52.944;5.928;2023-02-01T01:15:48;8.70;96.30
53422;DHT22;39319;52.944;5.928;2023-02-01T01:18:16;8.80;96.50
53422;DHT22;39319;52.944;5.928;2023-02-01T01:20:42;8.70;96.60
53422;DHT22;39319;52.944;5.928;2023-02-01T01:23:08;8.70;96.70
53422;DHT22;39319;52.944;5.928;2023-02-01T01:25:39;8.80;96.40
53422;DHT22;39319;52.944;5.928;2023-02-01T01:28:06;8.80;96.50
53422;DHT22;39319;52.944;5.928;2023-02-01T01:30:34;8.80;96.40
53422;DHT22;39319;52.944;5.928;2023-02-01T01:33:00;8.70;96.30
53422;DHT22;39319;52.944;5.928;2023-02-01T01:35:26;8.80;96.50
53422;DHT22;39319;52.944;5.928;2023-02-01T01:37:53;8.70;96.20
53422;DHT22;39319;52.944;5.928;2023-02-01T01:40:19;8.90;96.30
53422;DHT22;39319;52.944;5.928;2023-02-01T01:42:45;8.70;96.70
53422;DHT22;39319;52.944;5.928;2023-02-01T01:45:30;8.70;97.00
53422;DHT22;39319;52.944;5.928;2023-02-01T01:48:06;8.80;97.30
53422;DHT22;39319;52.944;5.928;2023-02-01T01:50:38;8.80;97.60
53422;DHT22;39319;52.944;5.928;2023-02-01T01:53:07;8.60;97.60
53422;DHT22;39319;52.944;5.928;2023-02-01T01:55:37;8.70;97.70
53422;DHT22;39319;52.944;5.928;2023-02-01T01:58:08;8.70;97.80
53422;DHT22;39319;52.944;5.928;2023-02-01T02:00:36;8.70;97.70
53422;DHT22;39319;52.944;5.928;2023-02-01T02:03:25;8.60;97.60
53422;DHT22;39319;52.944;5.928;2023-02-01T02:05:55;8.80;98.00
53422;DHT22;39319;52.944;5.928;2023-02-01T02:08:24;8.70;98.10
53422;DHT22;39319;52.944;5.928;2023-02-01T02:10:51;8.80;98.10
53422;DHT22;39319;52.944;5.928;2023-02-01T02:13:35;8.70;98.10
53422;DHT22;39319;52.944;5.928;2023-02-01T02:33:49;8.50;98.70
53422;DHT22;39319;52.944;5.928;2023-02-01T02:39:02;8.50;98.70
53422;DHT22;39319;52.944;5.928;2023-02-01T02:47:27;8.60;98.40
53422;DHT22;39319;52.944;5.928;2023-02-01T02:50:36;8.50;98.50
53422;DHT22;39319;52.944;5.928;2023-02-01T02:53:30;8.40;98.10
53422;DHT22;39319;52.944;5.928;2023-02-01T02:56:18;8.40;98.20
53422;DHT22;39319;52.944;5.928;2023-02-01T02:59:04;8.60;98.20
53422;DHT22;39319;52.944;5.928;2023-02-01T03:01:49;8.50;98.10
53422;DHT22;39319;52.944;5.928;2023-02-01T03:04:34;8.50;98.00
53422;DHT22;39319;52.944;5.928;2023-02-01T03:07:13;8.70;97.80
53422;DHT22;39319;52.944;5.928;2023-02-01T03:09:40;8.60;97.70
53422;DHT22;39319;52.944;5.928;2023-02-01T03:12:11;8.60;97.70
53422;DHT22;39319;52.944;5.928;2023-02-01T03:15:08;8.50;97.70
53422;DHT22;39319;52.944;5.928;2023-02-01T03:17:39;8.50;97.70
53422;DHT22;39319;52.944;5.928;2023-02-01T03:20:09;8.60;97.70
53422;DHT22;39319;52.944;5.928;2023-02-01T03:22:39;8.60;97.70
53422;DHT22;39319;52.944;5.928;2023-02-01T03:25:12;8.70;97.80
53422;DHT22;39319;52.944;5.928;2023-02-01T03:27:53;8.70;97.60
53422;DHT22;39319;52.944;5.928;2023-02-01T03:30:25;8.60;97.60
53422;DHT22;39319;52.944;5.928;2023-02-01T03:32:55;8.50;97.50
53422;DHT22;39319;52.944;5.928;2023-02-01T03:35:54;8.50;97.80
53422;DHT22;39319;52.944;5.928;2023-02-01T03:38:25;8.60;97.90
53422;DHT22;39319;52.944;5.928;2023-02-01T03:43:57;8.60;97.90
53422;DHT22;39319;52.944;5.928;2023-02-01T03:46:37;8.60;98.00
53422;DHT22;39319;52.944;5.928;2023-02-01T03:49:10;8.60;98.00
53422;DHT22;39319;52.944;5.928;2023-02-01T03:51:38;8.60;98.00
53422;DHT22;39319;52.944;5.928;2023-02-01T03:54:07;8.70;97.90
53422;DHT22;39319;52.944;5.928;2023-02-01T03:56:37;8.70;98.20
53422;DHT22;39319;52.944;5.928;2023-02-01T03:59:03;8.60;98.40
53422;DHT22;39319;52.944;5.928;2023-02-01T04:01:30;8.60;98.10
53422;DHT22;39319;52.944;5.928;2023-02-01T04:03:57;8.60;97.90
53422;DHT22;39319;52.944;5.928;2023-02-01T04:06:24;8.70;98.00
53422;DHT22;39319;52.944;5.928;2023-02-01T04:08:50;8.70;98.00
53422;DHT22;39319;52.944;5.928;2023-02-01T04:11:16;8.70;98.10
53422;DHT22;39319;52.944;5.928;2023-02-01T04:13:42;8.70;97.90
53422;DHT22;39319;52.944;5.928;2023-02-01T04:16:07;8.60;98.00
53422;DHT22;39319;52.944;5.928;2023-02-01T04:18:37;8.70;98.00
53422;DHT22;39319;52.944;5.928;2023-02-01T04:21:03;8.70;97.90
53422;DHT22;39319;52.944;5.928;2023-02-01T04:23:29;8.60;98.00
53422;DHT22;39319;52.944;5.928;2023-02-01T04:26:01;8.80;97.90
53422;DHT22;39319;52.944;5.928;2023-02-01T04:28:28;8.80;97.90
53422;DHT22;39319;52.944;5.928;2023-02-01T04:30:53;8.70;98.10
53422;DHT22;39319;52.944;5.928;2023-02-01T04:33:20;8.60;97.80
53422;DHT22;39319;52.944;5.928;2023-02-01T04:35:45;8.80;97.90
53422;DHT22;39319;52.944;5.928;2023-02-01T04:38:11;8.80;97.60
53422;DHT22;39319;52.944;5.928;2023-02-01T04:40:37;8.80;97.50
53422;DHT22;39319;52.944;5.928;2023-02-01T04:43:06;8.70;97.50
53422;DHT22;39319;52.944;5.928;2023-02-01T04:45:33;8.60;97.50
53422;DHT22;39319;52.944;5.928;2023-02-01T04:47:59;8.70;97.60
53422;DHT22;39319;52.944;5.928;2023-02-01T04:50:24;8.50;97.60
53422;DHT22;39319;52.944;5.928;2023-02-01T04:52:50;8.50;97.60
53422;DHT22;39319;52.944;5.928;2023-02-01T04:55:16;8.60;97.60
53422;DHT22;39319;52.944;5.928;2023-02-01T04:57:42;8.50;97.50
53422;DHT22;39319;52.944;5.928;2023-02-01T05:00:09;8.60;97.70
53422;DHT22;39319;52.944;5.928;2023-02-01T05:02:35;8.50;97.70
53422;DHT22;39319;52.944;5.928;2023-02-01T05:05:01;8.60;97.80
53422;DHT22;39319;52.944;5.928;2023-02-01T05:07:27;8.60;97.70
53422;DHT22;39319;52.944;5.928;2023-02-01T05:09:53;8.60;97.80
53422;DHT22;39319;52.944;5.928;2023-02-01T05:12:18;8.60;97.80
53422;DHT22;39319;52.944;5.928;2023-02-01T05:15:03;8.60;97.90
53422;DHT22;39319;52.944;5.928;2023-02-01T05:17:29;8.60;97.70
53422;DHT22;39319;52.944;5.928;2023-02-01T05:19:59;8.70;97.80
53422;DHT22;39319;52.944;5.928;2023-02-01T05:22:24;8.50;98.00
53422;DHT22;39319;52.944;5.928;2023-02-01T05:24:51;8.60;98.00
53422;DHT22;39319;52.944;5.928;2023-02-01T05:27:19;8.60;98.10
53422;DHT22;39319;52.944;5.928;2023-02-01T05:29:44;8.60;98.10
53422;DHT22;39319;52.944;5.928;2023-02-01T05:32:10;8.60;98.00
53422;DHT22;39319;52.944;5.928;2023-02-01T05:34:36;8.60;98.10
53422;DHT22;39319;52.944;5.928;2023-02-01T05:37:02;8.60;98.10
53422;DHT22;39319;52.944;5.928;2023-02-01T05:39:28;8.70;98.20
53422;DHT22;39319;52.944;5.928;2023-02-01T05:41:55;8.60;98.20
53422;DHT22;39319;52.944;5.928;2023-02-01T05:44:20;8.60;98.10
53422;DHT22;39319;52.944;5.928;2023-02-01T05:46:46;8.80;97.90
53422;DHT22;39319;52.944;5.928;2023-02-01T05:49:12;8.70;98.00
53422;DHT22;39319;52.944;5.928;2023-02-01T05:51:37;8.70;98.00
53422;DHT22;39319;52.944;5.928;2023-02-01T05:54:04;8.50;98.00
53422;DHT22;39319;52.944;5.928;2023-02-01T05:56:29;8.70;98.20
53422;DHT22;39319;52.944;5.928;2023-02-01T05:58:56;8.70;97.90
53422;DHT22;39319;52.944;5.928;2023-02-01T06:01:21;8.70;97.90
53422;DHT22;39319;52.944;5.928;2023-02-01T06:03:47;8.70;97.90
53422;DHT22;39319;52.944;5.928;2023-02-01T06:06:13;8.80;97.90
53422;DHT22;39319;52.944;5.928;2023-02-01T06:08:38;8.70;97.90
53422;DHT22;39319;52.944;5.928;2023-02-01T06:11:08;8.70;97.80
53422;DHT22;39319;52.944;5.928;2023-02-01T06:13:34;8.80;97.70
53422;DHT22;39319;52.944;5.928;2023-02-01T06:16:02;8.70;97.70
53422;DHT22;39319;52.944;5.928;2023-02-01T06:18:28;8.70;97.70
53422;DHT22;39319;52.944;5.928;2023-02-01T06:20:57;8.60;97.80
53422;DHT22;39319;52.944;5.928;2023-02-01T06:23:24;8.70;98.00
53422;DHT22;39319;52.944;5.928;2023-02-01T06:25:59;8.70;98.10
53422;DHT22;39319;52.944;5.928;2023-02-01T06:28:25;8.80;97.80
53422;DHT22;39319;52.944;5.928;2023-02-01T06:30:51;8.70;97.90
53422;DHT22;39319;52.944;5.928;2023-02-01T06:33:18;8.60;98.10
53422;DHT22;39319;52.944;5.928;2023-02-01T06:35:44;8.80;97.80
53422;DHT22;39319;52.944;5.928;2023-02-01T06:38:13;8.80;97.90
53422;DHT22;39319;52.944;5.928;2023-02-01T06:40:40;8.80;97.80
53422;DHT22;39319;52.944;5.928;2023-02-01T06:43:07;8.80;97.80
53422;DHT22;39319;52.944;5.928;2023-02-01T06:45:33;8.80;98.00
53422;DHT22;39319;52.944;5.928;2023-02-01T06:47:59;8.70;97.80
53422;DHT22;39319;52.944;5.928;2023-02-01T06:50:28;8.80;97.70
53422;DHT22;39319;52.944;5.928;2023-02-01T06:52:55;8.90;97.90
53422;DHT22;39319;52.944;5.928;2023-02-01T06:55:20;8.70;97.60
53422;DHT22;39319;52.944;5.928;2023-02-01T06:57:46;8.80;97.50
53422;DHT22;39319;52.944;5.928;2023-02-01T07:00:12;8.80;97.80
53422;DHT22;39319;52.944;5.928;2023-02-01T07:02:38;8.80;97.60
53422;DHT22;39319;52.944;5.928;2023-02-01T07:05:04;8.70;97.70
53422;DHT22;39319;52.944;5.928;2023-02-01T07:07:30;8.90;97.80
53422;DHT22;39319;52.944;5.928;2023-02-01T07:09:56;8.80;97.90
53422;DHT22;39319;52.944;5.928;2023-02-01T07:12:21;8.70;97.90
53422;DHT22;39319;52.944;5.928;2023-02-01T07:14:48;8.60;97.90
53422;DHT22;39319;52.944;5.928;2023-02-01T07:17:14;8.70;97.90
53422;DHT22;39319;52.944;5.928;2023-02-01T07:19:40;8.70;98.10
53422;DHT22;39319;52.944;5.928;2023-02-01T07:22:06;8.70;97.90
53422;DHT22;39319;52.944;5.928;2023-02-01T07:24:33;8.80;97.90
53422;DHT22;39319;52.944;5.928;2023-02-01T07:26:59;8.70;98.10
53422;DHT22;39319;52.944;5.928;2023-02-01T07:29:25;8.60;98.10
53422;DHT22;39319;52.944;5.928;2023-02-01T07:31:50;8.60;98.00
53422;DHT22;39319;52.944;5.928;2023-02-01T07:34:17;8.40;97.90
53422;DHT22;39319;52.944;5.928;2023-02-01T07:36:42;8.60;98.10
53422;DHT22;39319;52.944;5.928;2023-02-01T07:39:08;8.50;98.20
53422;DHT22;39319;52.944;5.928;2023-02-01T07:41:36;8.50;97.90
53422;DHT22;39319;52.944;5.928;2023-02-01T07:44:02;8.50;98.10
53422;DHT22;39319;52.944;5.928;2023-02-01T07:46:27;8.40;97.90
53422;DHT22;39319;52.944;5.928;2023-02-01T07:48:53;8.40;98.00
53422;DHT22;39319;52.944;5.928;2023-02-01T07:51:19;8.60;98.00
53422;DHT22;39319;52.944;5.928;2023-02-01T07:53:45;8.50;98.30
53422;DHT22;39319;52.944;5.928;2023-02-01T07:56:16;8.50;98.40
53422;DHT22;39319;52.944;5.928;2023-02-01T07:58:43;8.50;98.40
53422;DHT22;39319;52.944;5.928;2023-02-01T08:01:16;8.50;98.50
53422;DHT22;39319;52.944;5.928;2023-02-01T08:03:46;8.60;98.90
53422;DHT22;39319;52.944;5.928;2023-02-01T08:06:12;8.70;98.70
53422;DHT22;39319;52.944;5.928;2023-02-01T08:08:37;8.60;98.40
53422;DHT22;39319;52.944;5.928;2023-02-01T08:11:05;8.60;98.50
53422;DHT22;39319;52.944;5.928;2023-02-01T08:13:33;8.60;98.60
53422;DHT22;39319;52.944;5.928;2023-02-01T08:16:01;8.50;98.70
53422;DHT22;39319;52.944;5.928;2023-02-01T08:18:28;8.60;98.50
53422;DHT22;39319;52.944;5.928;2023-02-01T08:20:53;8.60;98.60
53422;DHT22;39319;52.944;5.928;2023-02-01T08:23:21;8.70;98.50
53422;DHT22;39319;52.944;5.928;2023-02-01T08:25:47;8.70;98.50
53422;DHT22;39319;52.944;5.928;2023-02-01T08:28:14;8.60;98.50
53422;DHT22;39319;52.944;5.928;2023-02-01T08:30:40;8.60;98.70
53422;DHT22;39319;52.944;5.928;2023-02-01T08:33:08;8.60;98.70
53422;DHT22;39319;52.944;5.928;2023-02-01T08:35:38;8.80;98.60
53422;DHT22;39319;52.944;5.928;2023-02-01T08:38:04;8.60;98.50
53422;DHT22;39319;52.944;5.928;2023-02-01T08:40:30;8.70;98.50
53422;DHT22;39319;52.944;5.928;2023-02-01T08:42:56;8.70;98.40
53422;DHT22;39319;52.944;5.928;2023-02-01T08:45:24;8.70;98.30
53422;DHT22;39319;52.944;5.928;2023-02-01T08:47:51;8.60;98.50
53422;DHT22;39319;52.944;5.928;2023-02-01T08:50:18;8.70;98.50
53422;DHT22;39319;52.944;5.928;2023-02-01T08:52:44;8.90;98.30
53422;DHT22;39319;52.944;5.928;2023-02-01T08:55:10;8.90;98.30
53422;DHT22;39319;52.944;5.928;2023-02-01T08:57:36;8.80;98.20
53422;DHT22;39319;52.944;5.928;2023-02-01T09:00:04;8.70;98.10
53422;DHT22;39319;52.944;5.928;2023-02-01T09:02:30;8.90;98.00
53422;DHT22;39319;52.944;5.928;2023-02-01T09:04:56;8.80;97.90
53422;DHT22;39319;52.944;5.928;2023-02-01T09:07:22;8.90;98.00
53422;DHT22;39319;52.944;5.928;2023-02-01T09:09:48;8.70;98.20
53422;DHT22;39319;52.944;5.928;2023-02-01T09:12:14;8.80;98.20
53422;DHT22;39319;52.944;5.928;2023-02-01T09:14:40;8.80;98.00
53422;DHT22;39319;52.944;5.928;2023-02-01T09:17:06;8.80;97.80
53422;DHT22;39319;52.944;5.928;2023-02-01T09:19:32;8.90;97.80
53422;DHT22;39319;52.944;5.928;2023-02-01T09:21:58;8.90;97.90
53422;DHT22;39319;52.944;5.928;2023-02-01T09:24:24;8.70;97.80
53422;DHT22;39319;52.944;5.928;2023-02-01T09:26:50;8.80;97.80
53422;DHT22;39319;52.944;5.928;2023-02-01T09:29:16;8.80;97.80
53422;DHT22;39319;52.944;5.928;2023-02-01T09:31:42;9.00;97.60
53422;DHT22;39319;52.944;5.928;2023-02-01T09:34:08;8.90;97.80
53422;DHT22;39319;52.944;5.928;2023-02-01T09:36:34;8.90;97.80
53422;DHT22;39319;52.944;5.928;2023-02-01T09:39:01;9.00;97.80
53422;DHT22;39319;52.944;5.928;2023-02-01T09:46:45;9.00;97.70
53422;DHT22;39319;52.944;5.928;2023-02-01T09:49:18;9.00;97.50
53422;DHT22;39319;52.944;5.928;2023-02-01T09:51:51;9.20;97.40
53422;DHT22;39319;52.944;5.928;2023-02-01T09:56:51;9.00;97.30
53422;DHT22;39319;52.944;5.928;2023-02-01T10:02:04;9.00;97.40
53422;DHT22;39319;52.944;5.928;2023-02-01T10:04:31;9.00;97.50
53422;DHT22;39319;52.944;5.928;2023-02-01T10:07:37;9.10;97.50
53422;DHT22;39319;52.944;5.928;2023-02-01T10:18:10;9.20;97.80
53422;DHT22;39319;52.944;5.928;2023-02-01T10:26:19;9.00;98.50
53422;DHT22;39319;52.944;5.928;2023-02-01T10:29:02;9.10;98.20
53422;DHT22;39319;52.944;5.928;2023-02-01T10:31:31;9.00;98.20
53422;DHT22;39319;52.944;5.928;2023-02-01T10:34:06;9.10;98.20
53422;DHT22;39319;52.944;5.928;2023-02-01T10:37:28;9.10;98.20
53422;DHT22;39319;52.944;5.928;2023-02-01T10:39:28;9.00;98.20
53422;DHT22;39319;52.944;5.928;2023-02-01T10:41:55;9.10;98.00
53422;DHT22;39319;52.944;5.928;2023-02-01T10:44:27;9.10;98.20
53422;DHT22;39319;52.944;5.928;2023-02-01T10:46:54;8.90;98.20
53422;DHT22;39319;52.944;5.928;2023-02-01T10:49:32;9.10;98.30
53422;DHT22;39319;52.944;5.928;2023-02-01T10:52:10;9.20;98.00
53422;DHT22;39319;52.944;5.928;2023-02-01T10:54:39;9.30;98.00
53422;DHT22;39319;52.944;5.928;2023-02-01T10:57:25;9.20;98.00
53422;DHT22;39319;52.944;5.928;2023-02-01T10:59:53;9.10;98.20
53422;DHT22;39319;52.944;5.928;2023-02-01T11:02:34;9.10;98.20
53422;DHT22;39319;52.944;5.928;2023-02-01T11:05:05;9.10;98.00
53422;DHT22;39319;52.944;5.928;2023-02-01T11:07:34;9.10;98.10
53422;DHT22;39319;52.944;5.928;2023-02-01T11:10:01;9.10;98.10
53422;DHT22;39319;52.944;5.928;2023-02-01T11:12:36;9.20;98.10
53422;DHT22;39319;52.944;5.928;2023-02-01T11:17:42;9.10;98.20
53422;DHT22;39319;52.944;5.928;2023-02-01T11:22:56;9.20;98.40
53422;DHT22;39319;52.944;5.928;2023-02-01T11:25:22;9.20;98.10
53422;DHT22;39319;52.944;5.928;2023-02-01T11:27:50;9.30;98.30
53422;DHT22;39319;52.944;5.928;2023-02-01T11:32:52;9.20;99.00
53422;DHT22;39319;52.944;5.928;2023-02-01T11:35:19;9.20;99.40
53422;DHT22;39319;52.944;5.928;2023-02-01T11:37:54;9.20;99.70
53422;DHT22;39319;52.944;5.928;2023-02-01T11:43:01;9.20;99.60
53422;DHT22;39319;52.944;5.928;2023-02-01T11:45:33;9.20;99.70
53422;DHT22;39319;52.944;5.928;2023-02-01T11:48:00;9.20;99.40
53422;DHT22;39319;52.944;5.928;2023-02-01T11:50:47;9.10;99.20
53422;DHT22;39319;52.944;5.928;2023-02-01T11:53:32;9.20;99.20
53422;DHT22;39319;52.944;5.928;2023-02-01T11:59:17;9.20;99.50
53422;DHT22;39319;52.944;5.928;2023-02-01T12:04:58;9.20;99.20
53422;DHT22;39319;52.944;5.928;2023-02-01T12:15:36;9.30;99.40
53422;DHT22;39319;52.944;5.928;2023-02-01T12:21:06;9.30;99.40
53422;DHT22;39319;52.944;5.928;2023-02-01T12:34:17;9.50;99.10
53422;DHT22;39319;52.944;5.928;2023-02-01T12:42:32;9.60;98.80
53422;DHT22;39319;52.944;5.928;2023-02-01T12:45:15;9.70;98.80
53422;DHT22;39319;52.944;5.928;2023-02-01T12:47:52;9.70;98.80
53422;DHT22;39319;52.944;5.928;2023-02-01T12:50:29;9.80;98.60
53422;DHT22;39319;52.944;5.928;2023-02-01T12:53:09;9.80;98.80
53422;DHT22;39319;52.944;5.928;2023-02-01T12:55:43;9.90;98.50
53422;DHT22;39319;52.944;5.928;2023-02-01T12:58:18;9.90;98.50
53422;DHT22;39319;52.944;5.928;2023-02-01T13:00:59;9.90;98.60
53422;DHT22;39319;52.944;5.928;2023-02-01T13:03:53;10.00;98.40
53422;DHT22;39319;52.944;5.928;2023-02-01T13:06:49;10.00;98.50
53422;DHT22;39319;52.944;5.928;2023-02-01T13:09:33;9.90;98.40
53422;DHT22;39319;52.944;5.928;2023-02-01T13:12:17;10.10;98.50
53422;DHT22;39319;52.944;5.928;2023-02-01T13:15:16;10.30;98.40
53422;DHT22;39319;52.944;5.928;2023-02-01T13:17:43;10.40;98.20
53422;DHT22;39319;52.944;5.928;2023-02-01T13:20:23;10.60;98.10
53422;DHT22;39319;52.944;5.928;2023-02-01T13:23:09;10.90;97.70
53422;DHT22;39319;52.944;5.928;2023-02-01T13:25:47;11.10;97.40
53422;DHT22;39319;52.944;5.928;2023-02-01T13:28:31;11.40;97.00
53422;DHT22;39319;52.944;5.928;2023-02-01T13:31:32;11.30;97.10
53422;DHT22;39319;52.944;5.928;2023-02-01T13:42:56;11.50;96.80
53422;DHT22;39319;52.944;5.928;2023-02-01T13:45:26;11.70;96.90
53422;DHT22;39319;52.944;5.928;2023-02-01T13:47:55;11.70;96.70
53422;DHT22;39319;52.944;5.928;2023-02-01T13:50:31;12.00;96.50
53422;DHT22;39319;52.944;5.928;2023-02-01T13:56:03;12.40;95.80
53422;DHT22;39319;52.944;5.928;2023-02-01T13:58:44;12.70;95.70
53422;DHT22;39319;52.944;5.928;2023-02-01T14:03:55;12.70;95.10
53422;DHT22;39319;52.944;5.928;2023-02-01T14:09:17;12.50;95.20
53422;DHT22;39319;52.944;5.928;2023-02-01T14:11:47;12.20;95.30
53422;DHT22;39319;52.944;5.928;2023-02-01T14:19:25;11.70;95.70
53422;DHT22;39319;52.944;5.928;2023-02-01T14:21:53;11.70;95.80
53422;DHT22;39319;52.944;5.928;2023-02-01T14:24:36;11.70;96.00
53422;DHT22;39319;52.944;5.928;2023-02-01T14:27:17;11.70;96.20
53422;DHT22;39319;52.944;5.928;2023-02-01T14:29:51;11.90;96.10
53422;DHT22;39319;52.944;5.928;2023-02-01T14:32:26;11.90;95.90
53422;DHT22;39319;52.944;5.928;2023-02-01T14:34:59;11.90;95.80
53422;DHT22;39319;52.944;5.928;2023-02-01T14:37:31;12.00;95.40
53422;DHT22;39319;52.944;5.928;2023-02-01T14:40:03;11.90;95.50
53422;DHT22;39319;52.944;5.928;2023-02-01T14:50:44;11.60;95.80
53422;DHT22;39319;52.944;5.928;2023-02-01T14:58:16;11.30;96.20
53422;DHT22;39319;52.944;5.928;2023-02-01T15:01:32;11.30;96.40
53422;DHT22;39319;52.944;5.928;2023-02-01T15:04:13;11.20;96.40
53422;DHT22;39319;52.944;5.928;2023-02-01T15:14:31;11.00;97.10
53422;DHT22;39319;52.944;5.928;2023-02-01T15:16:57;11.00;97.10
53422;DHT22;39319;52.944;5.928;2023-02-01T15:19:24;10.90;97.10
53422;DHT22;39319;52.944;5.928;2023-02-01T15:21:55;10.90;97.10
53422;DHT22;39319;52.944;5.928;2023-02-01T15:26:50;10.80;96.90
53422;DHT22;39319;52.944;5.928;2023-02-01T15:29:17;10.90;96.80
53422;DHT22;39319;52.944;5.928;2023-02-01T15:31:46;10.80;96.90
53422;DHT22;39319;52.944;5.928;2023-02-01T15:34:12;10.60;97.10
53422;DHT22;39319;52.944;5.928;2023-02-01T15:36:41;10.70;97.20
53422;DHT22;39319;52.944;5.928;2023-02-01T15:39:24;10.60;97.20
53422;DHT22;39319;52.944;5.928;2023-02-01T15:41:55;10.60;97.40
53422;DHT22;39319;52.944;5.928;2023-02-01T15:44:32;10.50;97.50
53422;DHT22;39319;52.944;5.928;2023-02-01T15:47:04;10.50;97.50
53422;DHT22;39319;52.944;5.928;2023-02-01T15:49:36;10.60;97.40
53422;DHT22;39319;52.944;5.928;2023-02-01T15:52:02;10.50;97.50
53422;DHT22;39319;52.944;5.928;2023-02-01T15:54:34;10.50;97.40
53422;DHT22;39319;52.944;5.928;2023-02-01T15:57:03;10.30;97.80
53422;DHT22;39319;52.944;5.928;2023-02-01T15:59:42;10.30;97.60
53422;DHT22;39319;52.944;5.928;2023-02-01T16:02:34;10.30;97.60
53422;DHT22;39319;52.944;5.928;2023-02-01T16:05:02;10.10;97.80
53422;DHT22;39319;52.944;5.928;2023-02-01T16:07:32;10.10;97.70
53422;DHT22;39319;52.944;5.928;2023-02-01T16:10:00;10.20;97.80
53422;DHT22;39319;52.944;5.928;2023-02-01T16:12:46;10.00;97.80
53422;DHT22;39319;52.944;5.928;2023-02-01T16:15:12;10.20;97.70
53422;DHT22;39319;52.944;5.928;2023-02-01T16:17:38;10.30;97.70
53422;DHT22;39319;52.944;5.928;2023-02-01T16:20:04;10.00;97.70
53422;DHT22;39319;52.944;5.928;2023-02-01T16:22:30;10.20;98.00
53422;DHT22;39319;52.944;5.928;2023-02-01T16:24:56;10.00;97.90
53422;DHT22;39319;52.944;5.928;2023-02-01T16:27:22;10.00;98.10
53422;DHT22;39319;52.944;5.928;2023-02-01T16:29:49;10.00;98.10
53422;DHT22;39319;52.944;5.928;2023-02-01T16:32:26;10.00;98.30
53422;DHT22;39319;52.944;5.928;2023-02-01T16:34:52;9.90;98.20
53422;DHT22;39319;52.944;5.928;2023-02-01T16:37:24;9.90;98.30
53422;DHT22;39319;52.944;5.928;2023-02-01T16:39:51;9.80;98.30
53422;DHT22;39319;52.944;5.928;2023-02-01T16:42:17;9.90;98.20
53422;DHT22;39319;52.944;5.928;2023-02-01T16:44:49;9.90;98.40
53422;DHT22;39319;52.944;5.928;2023-02-01T16:47:21;9.80;98.40
53422;DHT22;39319;52.944;5.928;2023-02-01T16:49:47;9.90;98.40
53422;DHT22;39319;52.944;5.928;2023-02-01T16:52:19;9.80;98.30
53422;DHT22;39319;52.944;5.928;2023-02-01T16:54:46;9.90;98.30
53422;DHT22;39319;52.944;5.928;2023-02-01T16:57:15;9.90;98.30
53422;DHT22;39319;52.944;5.928;2023-02-01T16:59:41;9.80;98.40
53422;DHT22;39319;52.944;5.928;2023-02-01T17:02:16;9.70;98.50
53422;DHT22;39319;52.944;5.928;2023-02-01T17:04:42;9.70;98.20
53422;DHT22;39319;52.944;5.928;2023-02-01T17:07:13;9.70;98.20
53422;DHT22;39319;52.944;5.928;2023-02-01T17:09:47;9.70;98.20
53422;DHT22;39319;52.944;5.928;2023-02-01T17:12:22;9.70;98.30
53422;DHT22;39319;52.944;5.928;2023-02-01T17:14:49;9.70;98.10
53422;DHT22;39319;52.944;5.928;2023-02-01T17:17:16;9.60;98.20
53422;DHT22;39319;52.944;5.928;2023-02-01T17:19:49;9.60;98.20
53422;DHT22;39319;52.944;5.928;2023-02-01T17:22:22;9.60;98.20
53422;DHT22;39319;52.944;5.928;2023-02-01T17:24:49;9.50;98.20
53422;DHT22;39319;52.944;5.928;2023-02-01T17:27:18;9.60;98.40
53422;DHT22;39319;52.944;5.928;2023-02-01T17:29:44;9.50;98.30
53422;DHT22;39319;52.944;5.928;2023-02-01T17:32:21;9.60;98.50
53422;DHT22;39319;52.944;5.928;2023-02-01T17:34:47;9.50;98.50
53422;DHT22;39319;52.944;5.928;2023-02-01T17:37:28;9.60;98.40
53422;DHT22;39319;52.944;5.928;2023-02-01T17:39:54;9.50;98.60
53422;DHT22;39319;52.944;5.928;2023-02-01T17:42:20;9.50;98.70
53422;DHT22;39319;52.944;5.928;2023-02-01T17:44:47;9.50;98.80
53422;DHT22;39319;52.944;5.928;2023-02-01T17:47:13;9.50;98.90
53422;DHT22;39319;52.944;5.928;2023-02-01T17:49:39;9.50;98.80
53422;DHT22;39319;52.944;5.928;2023-02-01T17:52:05;9.50;98.90
53422;DHT22;39319;52.944;5.928;2023-02-01T17:54:31;9.50;99.00
53422;DHT22;39319;52.944;5.928;2023-02-01T17:56:58;9.60;99.00
53422;DHT22;39319;52.944;5.928;2023-02-01T17:59:26;9.50;98.90
53422;DHT22;39319;52.944;5.928;2023-02-01T18:01:51;9.50;98.90
53422;DHT22;39319;52.944;5.928;2023-02-01T18:04:18;9.50;99.00
53422;DHT22;39319;52.944;5.928;2023-02-01T18:06:44;9.40;99.00
53422;DHT22;39319;52.944;5.928;2023-02-01T18:09:10;9.50;99.00
53422;DHT22;39319;52.944;5.928;2023-02-01T18:11:36;9.50;99.10
53422;DHT22;39319;52.944;5.928;2023-02-01T18:14:02;9.50;99.20
53422;DHT22;39319;52.944;5.928;2023-02-01T18:16:33;9.60;99.20
53422;DHT22;39319;52.944;5.928;2023-02-01T18:18:58;9.50;99.10
53422;DHT22;39319;52.944;5.928;2023-02-01T18:21:37;9.50;99.20
53422;DHT22;39319;52.944;5.928;2023-02-01T18:24:05;9.50;99.10
53422;DHT22;39319;52.944;5.928;2023-02-01T18:26:37;9.40;99.10